Time;durP1;ratioP1;P1;durP2;ratioP2;P2;SDS_P1;SDS_P2;PMS_P1;PMS_P2;Temp;Humidity;BMP_temperature;BMP_pressure;BME280_temperature;BME280_humidity;BME280_pressure;Samples;Min_cycle;Max_cycle;Signal;HPM_P1;HPM_P2
2024/02/23 00:00:00;;;;;;;6.40;2.10;;;5.20;99.90;;;;;;5017618;28;20229;-63
2024/02/23 00:02:30;;;;;;;2.97;1.90;;;5.20;99.90;;;;;;5014877;28;20684;-63
2024/02/23 00:04:58;;;;;;;2.43;1.67;;;5.30;99.90;;;;;;5018439;28;20198;-63
2024/02/23 00:07:26;;;;;;;7.57;1.73;;;5.30;99.90;;;;;;4988482;28;20327;-63
2024/02/23 00:09:55;;;;;;;7.03;1.80;;;5.30;99.90;;;;;;5005430;28;20225;-63
2024/02/23 00:12:23;;;;;;;7.03;1.90;;;5.30;99.90;;;;;;5016011;28;20222;-63
2024/02/23 00:14:51;;;;;;;7.97;1.80;;;5.20;99.90;;;;;;5014216;28;20781;-63
2024/02/23 00:17:20;;;;;;;7.93;1.60;;;5.20;99.90;;;;;;5016753;28;20202;-62
2024/02/23 00:19:52;;;;;;;7.23;1.67;;;5.20;99.90;;;;;;5014020;28;20202;-63
2024/02/23 00:22:20;;;;;;;9.93;1.80;;;5.20;99.90;;;;;;5010988;28;20308;-63
2024/02/23 00:24:48;;;;;;;4.77;1.70;;;5.20;99.90;;;;;;5012608;28;20228;-63
2024/02/23 00:27:17;;;;;;;8.70;1.87;;;5.20;99.90;;;;;;5018112;28;20230;-63
2024/02/23 00:29:45;;;;;;;5.53;1.40;;;5.20;99.90;;;;;;5008497;28;20230;-63
2024/02/23 00:32:13;;;;;;;4.23;1.43;;;5.20;99.90;;;;;;4987471;28;20205;-63
2024/02/23 00:34:41;;;;;;;2.63;1.47;;;5.20;99.90;;;;;;5010477;28;20222;-63
2024/02/23 00:37:11;;;;;;;1.77;1.40;;;5.20;99.90;;;;;;5013357;28;20236;-62
2024/02/23 00:39:39;;;;;;;2.80;1.43;;;5.20;99.90;;;;;;5016355;28;20228;-63
2024/02/23 00:42:08;;;;;;;7.60;1.80;;;5.10;99.90;;;;;;5014312;28;20222;-64
2024/02/23 00:44:36;;;;;;;5.70;1.50;;;5.00;99.90;;;;;;5016947;28;20185;-62
2024/02/23 00:47:05;;;;;;;4.50;1.60;;;5.00;99.90;;;;;;5013192;28;20546;-62
2024/02/23 00:49:33;;;;;;;3.47;1.60;;;4.90;99.90;;;;;;5016099;28;20222;-62
2024/02/23 00:52:01;;;;;;;3.20;1.90;;;5.00;99.90;;;;;;5012237;28;20704;-62
2024/02/23 00:54:31;;;;;;;4.17;2.07;;;5.00;99.90;;;;;;5013944;28;20221;-62
2024/02/23 00:56:59;;;;;;;3.93;2.23;;;4.90;99.90;;;;;;5012107;28;20233;-62
2024/02/23 00:59:27;;;;;;;2.07;1.97;;;4.90;99.90;;;;;;5011373;28;20230;-62
2024/02/23 01:01:56;;;;;;;6.40;2.20;;;4.90;99.90;;;;;;5016777;28;20198;-62
2024/02/23 01:04:24;;;;;;;9.10;2.00;;;4.90;99.90;;;;;;5013482;28;20225;-62
2024/02/23 01:06:56;;;;;;;9.53;2.40;;;4.90;99.90;;;;;;5010053;28;20344;-62
2024/02/23 01:09:24;;;;;;;3.53;2.00;;;4.80;99.90;;;;;;5015977;28;20217;-63
2024/02/23 01:11:54;;;;;;;4.57;2.00;;;4.80;99.90;;;;;;5015933;28;20225;-63
2024/02/23 01:14:25;;;;;;;7.43;1.97;;;4.80;99.90;;;;;;5015408;28;20220;-63
2024/02/23 01:16:53;;;;;;;5.63;2.20;;;4.80;99.90;;;;;;5017554;28;20209;-62
2024/02/23 01:19:21;;;;;;;3.77;1.70;;;4.80;99.90;;;;;;5015407;28;20304;-62
2024/02/23 01:21:56;;;;;;;6.30;2.07;;;4.80;99.90;;;;;;5010200;28;20750;-62
2024/02/23 01:24:26;;;;;;;5.33;1.87;;;4.80;99.90;;;;;;5011577;28;20243;-62
2024/02/23 01:26:55;;;;;;;7.27;2.17;;;4.80;99.90;;;;;;5014038;28;20222;-62
2024/02/23 01:29:23;;;;;;;3.17;1.57;;;4.80;99.90;;;;;;5008922;28;20764;-62
2024/02/23 01:31:54;;;;;;;4.93;1.90;;;4.90;99.90;;;;;;5017472;28;20185;-63
2024/02/23 01:34:22;;;;;;;7.10;2.10;;;4.90;99.90;;;;;;5012627;28;20228;-63
2024/02/23 01:36:51;;;;;;;2.87;1.60;;;4.90;99.90;;;;;;5014463;28;20250;-62
2024/02/23 01:39:19;;;;;;;5.83;1.73;;;4.90;99.90;;;;;;5011105;28;20306;-63
2024/02/23 01:41:47;;;;;;;4.40;1.70;;;4.90;99.90;;;;;;5012969;28;20217;-62
2024/02/23 01:44:17;;;;;;;4.60;1.50;;;4.90;99.90;;;;;;5016052;28;20205;-62
2024/02/23 01:46:46;;;;;;;3.20;1.60;;;4.90;99.90;;;;;;5012250;28;20213;-62
2024/02/23 01:49:15;;;;;;;4.67;1.70;;;5.00;99.90;;;;;;5013983;28;20226;-62
2024/02/23 01:51:43;;;;;;;6.50;1.80;;;5.00;99.90;;;;;;5009999;28;20681;-62
2024/02/23 01:54:11;;;;;;;6.43;1.90;;;4.90;99.90;;;;;;5015253;28;20216;-62
2024/02/23 01:56:40;;;;;;;7.27;2.00;;;4.90;99.90;;;;;;5012264;28;20225;-62
2024/02/23 01:59:11;;;;;;;5.13;2.00;;;4.80;99.90;;;;;;5012781;28;20194;-62
2024/02/23 02:01:43;;;;;;;2.23;1.80;;;4.80;99.90;;;;;;5012671;28;20286;-62
2024/02/23 02:04:11;;;;;;;7.83;2.20;;;4.80;99.90;;;;;;5010890;28;20248;-62
2024/02/23 02:06:40;;;;;;;5.93;2.67;;;4.80;99.90;;;;;;5012482;28;20692;-62
2024/02/23 02:09:09;;;;;;;8.43;2.17;;;4.80;99.90;;;;;;5017236;28;20739;-62
2024/02/23 02:11:46;;;;;;;5.37;2.03;;;4.80;99.90;;;;;;5017494;28;20232;-62
2024/02/23 02:14:14;;;;;;;5.60;2.37;;;4.80;99.90;;;;;;5009914;28;20193;-62
2024/02/23 02:16:44;;;;;;;7.70;2.00;;;4.80;99.90;;;;;;4996626;28;20777;-62
2024/02/23 02:19:12;;;;;;;9.87;1.77;;;4.70;99.90;;;;;;4995687;28;20249;-62
2024/02/23 02:21:42;;;;;;;15.53;2.37;;;4.80;99.90;;;;;;4990785;28;20615;-62
2024/02/23 02:24:10;;;;;;;5.97;2.23;;;4.80;99.90;;;;;;4991508;28;20223;-62
2024/02/23 02:26:43;;;;;;;6.33;2.30;;;4.80;99.90;;;;;;4992720;28;20250;-62
2024/02/23 02:29:11;;;;;;;5.73;1.97;;;4.80;99.90;;;;;;4993106;28;20194;-62
2024/02/23 02:31:38;;;;;;;9.43;2.30;;;4.70;99.90;;;;;;4992744;28;20816;-62
2024/02/23 02:34:08;;;;;;;3.47;2.10;;;4.80;99.90;;;;;;4992235;28;20433;-62
2024/02/23 02:36:36;;;;;;;5.53;2.20;;;4.80;99.90;;;;;;4994931;28;20234;-62
2024/02/23 02:39:04;;;;;;;10.03;2.70;;;4.80;99.90;;;;;;4995350;28;20222;-62
2024/02/23 02:41:36;;;;;;;9.93;2.37;;;4.80;99.90;;;;;;4993807;28;20297;-62
2024/02/23 02:44:05;;;;;;;5.07;2.10;;;4.80;99.90;;;;;;4995788;28;20199;-63
2024/02/23 02:46:33;;;;;;;10.37;2.40;;;4.80;99.90;;;;;;4989434;28;20701;-63
2024/02/23 02:49:01;;;;;;;11.77;2.40;;;4.90;99.90;;;;;;4976132;28;20223;-63
2024/02/23 02:51:31;;;;;;;6.43;2.37;;;4.90;99.90;;;;;;4977302;28;20317;-63
2024/02/23 02:53:59;;;;;;;10.47;2.43;;;4.90;99.90;;;;;;4977396;28;20249;-63
2024/02/23 02:56:27;;;;;;;8.27;2.53;;;4.90;99.90;;;;;;4977568;28;20227;-63
2024/02/23 02:58:56;;;;;;;7.23;2.40;;;4.90;99.90;;;;;;4982035;28;20202;-63
2024/02/23 03:01:24;;;;;;;7.03;2.50;;;5.00;99.90;;;;;;4976184;28;20262;-63
2024/02/23 03:03:53;;;;;;;8.33;2.23;;;5.00;99.90;;;;;;4981952;28;20304;-63
2024/02/23 03:06:21;;;;;;;5.40;2.10;;;5.00;99.90;;;;;;4975747;28;20230;-63
2024/02/23 03:08:51;;;;;;;4.27;2.00;;;5.10;99.90;;;;;;4983887;28;20226;-63
2024/02/23 03:11:19;;;;;;;5.83;2.10;;;5.10;99.90;;;;;;4976493;28;20681;-63
2024/02/23 03:13:47;;;;;;;9.43;2.00;;;5.00;99.90;;;;;;4980133;28;20210;-63
2024/02/23 03:16:16;;;;;;;5.83;2.10;;;5.00;99.90;;;;;;4982445;28;20226;-63
2024/02/23 03:18:46;;;;;;;5.57;1.90;;;5.00;99.90;;;;;;4980371;28;20713;-63
2024/02/23 03:21:15;;;;;;;2.57;1.80;;;5.00;99.90;;;;;;4979705;28;20596;-63
2024/02/23 03:23:45;;;;;;;12.70;2.30;;;5.10;99.90;;;;;;4979635;28;20233;-63
2024/02/23 03:26:16;;;;;;;3.13;1.57;;;5.10;99.90;;;;;;4990238;28;20190;-63
2024/02/23 03:28:45;;;;;;;5.13;1.87;;;5.20;99.90;;;;;;5015338;28;20222;-63
2024/02/23 03:31:13;;;;;;;8.83;2.13;;;5.20;99.90;;;;;;5002428;28;20587;-63
2024/02/23 03:33:41;;;;;;;7.00;2.20;;;5.10;99.90;;;;;;5003057;28;20229;-63
2024/02/23 03:36:10;;;;;;;4.20;1.83;;;5.10;99.90;;;;;;4999697;28;20603;-63
2024/02/23 03:38:38;;;;;;;5.93;2.33;;;5.20;99.90;;;;;;4999383;28;20791;-63
2024/02/23 03:41:06;;;;;;;7.83;2.17;;;5.20;99.90;;;;;;4996752;28;20280;-63
2024/02/23 03:43:38;;;;;;;6.80;2.20;;;5.20;99.90;;;;;;4997940;28;20252;-63
2024/02/23 03:46:07;;;;;;;6.20;1.83;;;5.20;99.90;;;;;;5012939;28;20214;-63
2024/02/23 03:48:36;;;;;;;7.10;2.10;;;5.30;99.90;;;;;;5014381;28;20230;-63
2024/02/23 03:51:05;;;;;;;5.10;1.80;;;5.30;99.90;;;;;;5015982;28;20241;-63
2024/02/23 03:53:33;;;;;;;5.70;2.00;;;5.30;99.90;;;;;;5014956;28;20216;-63
2024/02/23 03:56:01;;;;;;;6.47;2.50;;;5.30;99.90;;;;;;5015582;28;20198;-63
2024/02/23 03:58:30;;;;;;;12.57;2.60;;;5.30;99.90;;;;;;5013549;28;20246;-63
2024/02/23 04:01:00;;;;;;;7.53;2.93;;;5.30;99.90;;;;;;5018030;28;20241;-63
2024/02/23 04:03:28;;;;;;;7.00;2.50;;;5.30;99.90;;;;;;5045094;28;20723;-63
2024/02/23 04:05:56;;;;;;;4.03;2.30;;;5.30;99.90;;;;;;5012809;28;20214;-63
2024/02/23 04:08:25;;;;;;;4.63;2.07;;;5.30;99.90;;;;;;5010687;28;20206;-63
2024/02/23 04:10:54;;;;;;;5.53;2.00;;;5.30;99.90;;;;;;5010780;28;20221;-63
2024/02/23 04:13:22;;;;;;;6.17;1.87;;;5.20;99.90;;;;;;5014120;28;20218;-63
2024/02/23 04:15:50;;;;;;;7.10;2.10;;;5.20;99.90;;;;;;4992136;28;20305;-63
2024/02/23 04:18:20;;;;;;;6.43;1.90;;;5.20;99.90;;;;;;4975546;28;20229;-63
2024/02/23 04:20:48;;;;;;;6.97;2.10;;;5.20;99.90;;;;;;4974845;28;20226;-63
2024/02/23 04:23:16;;;;;;;9.10;2.47;;;5.20;99.90;;;;;;4976438;28;20859;-64
2024/02/23 04:25:45;;;;;;;13.20;2.27;;;5.20;99.90;;;;;;4998867;28;20248;-63
2024/02/23 04:28:13;;;;;;;5.73;2.30;;;5.20;99.90;;;;;;5001236;28;20222;-63
2024/02/23 04:30:41;;;;;;;5.13;2.33;;;5.20;99.90;;;;;;5001437;28;20664;-63
2024/02/23 04:33:10;;;;;;;7.33;2.30;;;5.20;99.90;;;;;;4980091;28;20289;-63
2024/02/23 04:35:39;;;;;;;5.40;1.97;;;5.10;99.90;;;;;;4977894;28;20293;-63
2024/02/23 04:38:07;;;;;;;4.47;2.00;;;5.10;99.90;;;;;;4983083;28;20721;-63
2024/02/23 04:40:36;;;;;;;8.30;2.60;;;5.10;99.90;;;;;;4977826;28;20225;-63
2024/02/23 04:43:05;;;;;;;5.63;2.07;;;5.10;99.90;;;;;;4979481;28;20232;-63
2024/02/23 04:45:33;;;;;;;7.10;2.43;;;5.10;99.90;;;;;;4983982;28;20234;-63
2024/02/23 04:48:02;;;;;;;9.93;2.63;;;5.10;99.90;;;;;;4980687;28;20226;-63
2024/02/23 04:50:30;;;;;;;6.03;2.20;;;5.20;99.90;;;;;;4979806;28;20207;-63
2024/02/23 04:53:00;;;;;;;8.30;2.60;;;5.20;99.90;;;;;;4978589;28;20203;-63
2024/02/23 04:55:28;;;;;;;5.27;2.00;;;5.20;99.90;;;;;;4981113;28;20238;-63
2024/02/23 04:57:56;;;;;;;14.90;2.50;;;5.20;99.90;;;;;;4982811;28;20594;-63
2024/02/23 05:00:28;;;;;;;7.00;2.33;;;5.20;99.90;;;;;;4978161;28;20246;-63
2024/02/23 05:02:56;;;;;;;4.67;2.27;;;5.20;99.90;;;;;;4983684;28;21475;-63
2024/02/23 05:05:25;;;;;;;8.60;2.30;;;5.20;99.90;;;;;;4978281;28;20198;-63
2024/02/23 05:07:54;;;;;;;4.03;1.90;;;5.20;99.90;;;;;;4984936;28;20554;-63
2024/02/23 05:10:23;;;;;;;6.17;2.73;;;5.20;99.90;;;;;;4985794;28;20305;-63
2024/02/23 05:12:52;;;;;;;9.50;2.10;;;5.20;99.90;;;;;;4977749;28;21933;-63
2024/02/23 05:15:20;;;;;;;6.20;2.30;;;5.20;99.90;;;;;;4981266;28;20230;-63
2024/02/23 05:17:49;;;;;;;8.40;2.13;;;5.20;99.90;;;;;;4981374;28;20226;-63
2024/02/23 05:20:17;;;;;;;5.87;2.10;;;5.20;99.90;;;;;;4978264;28;20318;-62
2024/02/23 05:22:46;;;;;;;9.43;2.37;;;5.10;99.90;;;;;;4977146;28;20285;-63
2024/02/23 05:25:14;;;;;;;10.53;2.50;;;5.10;99.90;;;;;;4979985;28;20222;-63
2024/02/23 05:27:44;;;;;;;7.33;2.33;;;5.10;99.90;;;;;;4979186;28;20219;-62
2024/02/23 05:30:13;;;;;;;11.40;2.50;;;5.00;99.90;;;;;;4975729;28;20226;-63
2024/02/23 05:32:42;;;;;;;6.80;2.10;;;5.10;99.90;;;;;;4997305;28;20226;-62
2024/02/23 05:35:10;;;;;;;9.63;2.37;;;5.20;99.90;;;;;;4985518;28;20198;-63
2024/02/23 05:37:39;;;;;;;5.37;2.20;;;5.20;99.90;;;;;;4976930;28;20630;-62
2024/02/23 05:40:10;;;;;;;6.10;1.87;;;5.20;99.90;;;;;;4979219;28;20226;-63
2024/02/23 05:42:38;;;;;;;5.77;1.97;;;5.20;99.90;;;;;;4977239;28;20245;-63
2024/02/23 05:45:10;;;;;;;7.90;2.30;;;5.20;99.90;;;;;;4984665;28;20218;-63
2024/02/23 05:47:38;;;;;;;6.40;2.10;;;5.20;99.90;;;;;;4988409;28;20237;-63
2024/02/23 05:50:10;;;;;;;9.27;2.43;;;5.30;99.90;;;;;;4991432;28;20222;-63
2024/02/23 05:52:40;;;;;;;10.77;2.30;;;5.30;99.90;;;;;;4992721;28;20221;-63
2024/02/23 05:55:09;;;;;;;4.83;2.13;;;5.20;99.90;;;;;;5000858;28;20707;-63
2024/02/23 05:57:37;;;;;;;5.93;2.00;;;5.20;99.90;;;;;;4996652;28;20265;-63
2024/02/23 06:00:07;;;;;;;6.53;2.20;;;5.20;99.90;;;;;;4987534;28;20219;-63
2024/02/23 06:02:36;;;;;;;7.50;2.77;;;5.20;99.90;;;;;;4983367;28;20191;-63
2024/02/23 06:05:07;;;;;;;5.27;1.93;;;5.20;99.90;;;;;;4992233;28;20199;-63
2024/02/23 06:07:36;;;;;;;5.87;2.40;;;5.20;99.90;;;;;;4991337;28;20233;-63
2024/02/23 06:10:06;;;;;;;11.23;2.30;;;5.30;99.90;;;;;;4991781;28;20230;-63
2024/02/23 06:12:34;;;;;;;6.33;2.23;;;5.30;99.90;;;;;;4992719;28;20234;-63
2024/02/23 06:15:02;;;;;;;8.60;2.10;;;5.40;99.90;;;;;;4986650;28;20233;-63
2024/02/23 06:17:30;;;;;;;8.13;2.20;;;5.40;99.90;;;;;;4989839;28;20393;-63
2024/02/23 06:20:00;;;;;;;7.20;2.17;;;5.40;99.90;;;;;;4990125;28;20337;-63
2024/02/23 06:22:32;;;;;;;3.97;2.00;;;5.50;99.90;;;;;;4993835;28;20732;-62
2024/02/23 06:25:00;;;;;;;6.03;2.10;;;5.50;99.90;;;;;;4994783;28;20235;-63
2024/02/23 06:27:28;;;;;;;9.70;2.43;;;5.50;99.90;;;;;;4989839;28;20226;-63
2024/02/23 06:29:56;;;;;;;10.87;2.30;;;5.50;99.90;;;;;;4992514;28;20222;-63
2024/02/23 06:32:25;;;;;;;5.83;2.00;;;5.50;99.90;;;;;;4990990;28;20205;-63
2024/02/23 06:34:54;;;;;;;7.90;2.10;;;5.50;99.90;;;;;;4995344;28;20233;-63
2024/02/23 06:37:27;;;;;;;9.17;2.13;;;5.50;99.90;;;;;;4988733;28;20542;-63
2024/02/23 06:39:55;;;;;;;10.30;2.30;;;5.50;99.90;;;;;;4987716;28;20229;-62
2024/02/23 06:42:23;;;;;;;9.00;2.10;;;5.50;99.90;;;;;;4988882;28;20229;-64
2024/02/23 06:44:51;;;;;;;8.37;2.33;;;5.50;99.90;;;;;;4990199;28;20231;-63
2024/02/23 06:47:19;;;;;;;9.70;2.57;;;5.50;99.90;;;;;;5007339;28;20201;-63
2024/02/23 06:49:48;;;;;;;5.50;2.10;;;5.50;99.90;;;;;;5007928;28;21041;-63
2024/02/23 06:52:17;;;;;;;5.50;2.20;;;5.60;99.90;;;;;;5008807;28;20224;-63
2024/02/23 06:54:47;;;;;;;12.40;2.50;;;5.60;99.90;;;;;;5016653;28;20244;-63
2024/02/23 06:57:16;;;;;;;9.27;2.30;;;5.60;99.90;;;;;;5017649;28;20300;-64
2024/02/23 06:59:44;;;;;;;8.93;2.57;;;5.70;99.90;;;;;;5011994;28;20927;-63
2024/02/23 07:02:12;;;;;;;5.73;2.10;;;5.70;99.90;;;;;;5011806;28;20292;-63
2024/02/23 07:04:41;;;;;;;5.80;2.33;;;5.70;99.90;;;;;;5013579;28;20229;-63
2024/02/23 07:07:11;;;;;;;7.87;2.57;;;5.70;99.90;;;;;;5014534;28;20226;-63
2024/02/23 07:09:39;;;;;;;9.03;2.30;;;5.80;99.90;;;;;;5017496;28;20228;-63
2024/02/23 07:12:11;;;;;;;8.27;2.47;;;5.80;99.90;;;;;;5017587;28;20225;-63
2024/02/23 07:14:39;;;;;;;14.03;2.53;;;5.80;99.90;;;;;;5017378;28;20562;-63
2024/02/23 07:17:09;;;;;;;7.73;2.30;;;5.80;99.90;;;;;;5014895;28;20260;-63
2024/02/23 07:19:37;;;;;;;5.97;1.83;;;5.90;99.90;;;;;;5018005;28;20720;-63
2024/02/23 07:22:05;;;;;;;10.70;2.40;;;5.90;99.90;;;;;;5011697;28;20313;-62
2024/02/23 07:24:34;;;;;;;9.07;2.13;;;6.00;99.90;;;;;;5017431;28;20217;-63
2024/02/23 07:27:02;;;;;;;11.90;2.17;;;6.00;99.90;;;;;;5018542;28;20691;-63
2024/02/23 07:29:32;;;;;;;10.50;2.30;;;6.10;99.90;;;;;;5018958;28;20584;-63
2024/02/23 07:32:00;;;;;;;9.47;2.30;;;6.20;99.90;;;;;;5019965;28;20247;-63
2024/02/23 07:34:28;;;;;;;8.90;2.30;;;6.20;99.90;;;;;;5017098;28;20233;-63
2024/02/23 07:36:56;;;;;;;3.50;2.10;;;6.30;99.90;;;;;;5019665;28;20257;-63
2024/02/23 07:39:25;;;;;;;8.90;2.47;;;6.30;99.90;;;;;;5014400;28;20226;-63
2024/02/23 07:41:53;;;;;;;7.50;2.60;;;6.20;99.90;;;;;;5012401;28;22059;-63
2024/02/23 07:44:21;;;;;;;12.50;2.33;;;6.10;99.90;;;;;;5010655;28;20196;-63
2024/02/23 07:46:52;;;;;;;9.70;2.20;;;5.90;99.90;;;;;;5006586;28;20186;-64
2024/02/23 07:49:20;;;;;;;8.37;2.30;;;5.80;99.90;;;;;;5017488;28;20697;-64
2024/02/23 07:51:50;;;;;;;9.40;2.27;;;5.70;99.90;;;;;;5016484;28;20230;-64
2024/02/23 07:54:18;;;;;;;8.73;2.43;;;5.70;99.90;;;;;;5015089;28;20222;-63
2024/02/23 07:56:46;;;;;;;7.40;2.30;;;5.60;99.90;;;;;;5016433;28;20225;-63
2024/02/23 07:59:15;;;;;;;10.23;3.00;;;5.60;99.90;;;;;;5015553;28;20226;-63
2024/02/23 08:01:43;;;;;;;13.50;2.53;;;5.60;99.90;;;;;;5008695;28;20226;-63
2024/02/23 08:04:13;;;;;;;11.77;1.90;;;5.60;99.90;;;;;;5019206;28;20284;-63
2024/02/23 08:06:42;;;;;;;4.80;1.87;;;5.50;99.90;;;;;;5012030;28;20221;-63
2024/02/23 08:09:10;;;;;;;6.40;2.03;;;5.60;99.90;;;;;;5011755;28;20311;-63
2024/02/23 08:11:39;;;;;;;17.17;2.53;;;5.60;99.90;;;;;;5027441;28;20576;-63
2024/02/23 08:14:08;;;;;;;9.13;2.60;;;5.50;99.90;;;;;;5011817;28;20252;-63
2024/02/23 08:16:36;;;;;;;9.53;2.30;;;5.50;99.90;;;;;;5008551;28;20700;-62
2024/02/23 08:19:04;;;;;;;9.67;2.30;;;5.50;99.90;;;;;;5010684;28;20232;-63
2024/02/23 08:21:34;;;;;;;7.87;2.40;;;5.50;99.90;;;;;;4995792;28;20225;-63
2024/02/23 08:24:03;;;;;;;10.57;2.30;;;5.50;99.90;;;;;;4996396;28;20325;-63
2024/02/23 08:26:31;;;;;;;9.10;2.60;;;5.50;99.90;;;;;;4992014;28;20197;-63
2024/02/23 08:29:00;;;;;;;12.77;2.40;;;5.50;99.90;;;;;;4988265;28;20213;-63
2024/02/23 08:31:28;;;;;;;7.90;2.33;;;5.50;99.90;;;;;;4987260;28;20259;-63
2024/02/23 08:34:00;;;;;;;8.83;2.50;;;5.50;99.90;;;;;;4991755;28;20226;-63
2024/02/23 08:36:28;;;;;;;11.00;2.40;;;5.50;99.90;;;;;;4991567;28;20227;-62
2024/02/23 08:39:01;;;;;;;6.17;2.50;;;5.50;99.90;;;;;;4992637;28;20581;-63
2024/02/23 08:41:29;;;;;;;7.77;2.30;;;5.60;99.90;;;;;;4988974;28;20195;-62
2024/02/23 08:43:57;;;;;;;8.17;2.63;;;5.60;99.90;;;;;;4989382;28;20214;-62
2024/02/23 08:46:26;;;;;;;8.80;2.10;;;5.60;99.90;;;;;;4995999;28;20218;-62
2024/02/23 08:48:54;;;;;;;3.93;2.13;;;5.70;99.90;;;;;;4995225;28;20233;-62
2024/02/23 08:51:22;;;;;;;8.87;2.50;;;5.70;99.90;;;;;;4992322;28;20226;-62
2024/02/23 08:53:51;;;;;;;11.67;2.73;;;5.70;99.90;;;;;;4996471;28;20223;-62
2024/02/23 08:56:20;;;;;;;5.27;2.10;;;5.70;99.90;;;;;;4995299;28;20573;-62
2024/02/23 08:58:49;;;;;;;6.83;2.50;;;5.70;99.90;;;;;;4991029;28;20215;-62
2024/02/23 09:01:17;;;;;;;10.40;2.43;;;5.80;99.90;;;;;;4990673;28;20222;-62
2024/02/23 09:03:45;;;;;;;8.10;2.60;;;5.80;99.90;;;;;;4997140;28;20222;-62
2024/02/23 09:06:14;;;;;;;10.17;2.60;;;5.80;99.90;;;;;;4990384;28;20248;-62
2024/02/23 09:08:43;;;;;;;10.47;2.20;;;5.80;99.90;;;;;;4988921;28;20232;-62
2024/02/23 09:11:13;;;;;;;9.50;2.37;;;6.00;99.90;;;;;;4993078;28;20217;-62
2024/02/23 09:13:43;;;;;;;7.07;2.40;;;6.00;99.90;;;;;;4986443;28;20222;-62
2024/02/23 09:16:11;;;;;;;5.37;2.37;;;6.00;99.90;;;;;;4994883;28;20310;-63
2024/02/23 09:18:40;;;;;;;7.43;2.40;;;6.10;99.90;;;;;;4988643;28;20309;-62
2024/02/23 09:21:08;;;;;;;3.30;2.23;;;6.20;99.90;;;;;;4998277;28;20229;-62
2024/02/23 09:23:36;;;;;;;10.53;2.27;;;6.30;99.90;;;;;;4989394;28;20210;-62
2024/02/23 09:26:10;;;;;;;4.27;1.80;;;6.40;99.90;;;;;;5008027;28;20214;-62
2024/02/23 09:28:40;;;;;;;11.83;2.80;;;6.50;99.90;;;;;;4996327;28;20288;-62
2024/02/23 09:31:10;;;;;;;7.83;2.50;;;6.70;99.90;;;;;;4991507;28;20210;-62
2024/02/23 09:33:38;;;;;;;9.80;1.90;;;6.70;99.90;;;;;;4997097;28;20226;-62
2024/02/23 09:36:07;;;;;;;4.63;2.20;;;6.70;99.90;;;;;;4993241;28;20219;-63
2024/02/23 09:38:36;;;;;;;7.87;2.30;;;6.70;99.90;;;;;;4994527;28;20203;-62
2024/02/23 09:41:04;;;;;;;5.60;2.10;;;6.80;99.90;;;;;;4993085;28;20219;-63
2024/02/23 09:43:34;;;;;;;9.10;2.03;;;6.90;99.90;;;;;;4994343;28;20317;-63
2024/02/23 09:46:03;;;;;;;5.03;2.00;;;7.10;99.90;;;;;;4994114;28;20229;-62
2024/02/23 09:48:35;;;;;;;5.27;2.20;;;7.20;99.90;;;;;;4991516;28;20316;-61
2024/02/23 09:51:06;;;;;;;4.60;2.03;;;7.20;99.90;;;;;;4990254;28;20749;-62
2024/02/23 09:53:38;;;;;;;4.27;2.07;;;7.30;99.90;;;;;;4992318;28;20893;-62
2024/02/23 09:56:10;;;;;;;5.00;1.87;;;7.30;99.90;;;;;;4990423;28;20191;-62
2024/02/23 09:58:42;;;;;;;3.30;2.37;;;7.40;99.90;;;;;;4995311;28;20222;-62
2024/02/23 10:01:11;;;;;;;4.27;1.83;;;7.40;99.90;;;;;;4991077;28;20241;-63
2024/02/23 10:03:42;;;;;;;7.17;2.43;;;7.40;99.90;;;;;;4990010;28;20230;-63
2024/02/23 10:06:11;;;;;;;9.77;2.20;;;7.30;99.90;;;;;;4989008;28;20226;-62
2024/02/23 10:08:39;;;;;;;7.00;2.20;;;7.30;99.90;;;;;;4995878;28;20333;-62
2024/02/23 10:11:08;;;;;;;9.00;2.20;;;7.10;99.90;;;;;;4987985;28;20250;-62
2024/02/23 10:13:36;;;;;;;2.80;1.83;;;7.00;99.90;;;;;;4988491;28;20213;-62
2024/02/23 10:16:06;;;;;;;5.60;2.27;;;6.80;99.90;;;;;;4989826;28;20258;-63
2024/02/23 10:18:44;;;;;;;6.77;2.23;;;6.80;99.90;;;;;;4994610;28;20245;-63
2024/02/23 10:21:13;;;;;;;5.40;2.43;;;6.70;99.90;;;;;;4997525;28;20325;-63
2024/02/23 10:23:41;;;;;;;5.53;2.20;;;6.70;99.90;;;;;;5010451;28;20226;-63
2024/02/23 10:26:09;;;;;;;10.07;2.40;;;6.70;99.90;;;;;;5013944;28;20229;-63
2024/02/23 10:28:39;;;;;;;17.10;2.30;;;6.80;99.90;;;;;;5014833;28;20722;-62
2024/02/23 10:31:07;;;;;;;7.13;2.17;;;6.80;99.90;;;;;;5018321;28;20230;-63
2024/02/23 10:33:41;;;;;;;5.20;2.27;;;6.80;99.90;;;;;;5022984;28;20292;-62
2024/02/23 10:36:16;;;;;;;6.50;2.40;;;6.80;99.90;;;;;;5017157;28;20299;-62
2024/02/23 10:38:47;;;;;;;8.40;2.50;;;6.90;99.90;;;;;;5013575;28;20224;-63
2024/02/23 10:41:17;;;;;;;6.30;2.23;;;7.00;99.90;;;;;;5012014;28;20205;-62
2024/02/23 10:43:48;;;;;;;8.23;2.20;;;7.10;99.90;;;;;;5011225;28;20304;-63
2024/02/23 10:46:16;;;;;;;7.73;2.07;;;7.20;99.90;;;;;;5001651;28;20313;-63
2024/02/23 10:48:45;;;;;;;5.70;2.17;;;7.30;99.90;;;;;;4997191;28;20227;-63
2024/02/23 10:51:16;;;;;;;8.10;2.60;;;7.30;99.90;;;;;;4990455;28;20226;-63
2024/02/23 10:53:50;;;;;;;9.77;2.13;;;7.40;99.90;;;;;;4996515;28;20216;-63
2024/02/23 10:56:22;;;;;;;8.23;2.37;;;7.60;99.90;;;;;;4996826;28;20197;-62
2024/02/23 10:58:50;;;;;;;4.97;2.00;;;7.70;99.90;;;;;;4996986;28;20191;-63
2024/02/23 11:01:21;;;;;;;2.03;1.90;;;7.90;99.90;;;;;;4991342;28;20264;-63
2024/02/23 11:03:50;;;;;;;2.83;1.93;;;7.90;99.90;;;;;;4991314;28;20308;-63
2024/02/23 11:06:21;;;;;;;7.57;2.30;;;8.00;99.90;;;;;;4995699;28;20336;-63
2024/02/23 11:08:52;;;;;;;4.53;1.80;;;7.90;99.90;;;;;;4994134;28;20559;-63
2024/02/23 11:11:21;;;;;;;3.40;1.70;;;8.00;99.90;;;;;;4996573;28;20183;-63
2024/02/23 11:13:57;;;;;;;8.00;2.40;;;8.10;99.90;;;;;;4996650;28;20195;-63
2024/02/23 11:16:27;;;;;;;3.37;1.77;;;8.20;99.90;;;;;;4994909;28;20225;-64
2024/02/23 11:19:05;;;;;;;4.07;1.83;;;8.30;99.90;;;;;;4990402;28;20222;-63
2024/02/23 11:21:38;;;;;;;5.77;1.70;;;8.40;99.90;;;;;;4993771;28;20319;-63
2024/02/23 11:24:08;;;;;;;8.90;1.90;;;8.40;99.90;;;;;;4990273;28;20257;-63
2024/02/23 11:26:38;;;;;;;5.57;1.60;;;8.30;99.90;;;;;;4999048;28;20189;-62
2024/02/23 11:29:12;;;;;;;4.20;1.70;;;8.20;99.90;;;;;;4996272;28;20201;-63
2024/02/23 11:31:46;;;;;;;9.83;2.10;;;8.00;99.90;;;;;;4995613;28;20272;-63
2024/02/23 11:34:22;;;;;;;4.50;2.10;;;7.90;99.90;;;;;;4992768;28;20225;-63
2024/02/23 11:36:53;;;;;;;4.97;1.70;;;7.90;99.90;;;;;;4991705;28;20226;-63
2024/02/23 11:39:22;;;;;;;5.43;2.00;;;7.90;99.90;;;;;;4996404;28;20214;-63
2024/02/23 11:41:51;;;;;;;5.67;1.93;;;7.90;99.90;;;;;;4996445;28;20804;-63
2024/02/23 11:44:19;;;;;;;4.77;2.10;;;7.90;99.90;;;;;;4997062;28;20293;-62
2024/02/23 11:46:48;;;;;;;3.80;1.80;;;7.90;99.90;;;;;;4999455;28;20831;-63
2024/02/23 11:49:16;;;;;;;6.90;1.57;;;7.80;99.90;;;;;;5001113;28;20221;-63
2024/02/23 11:51:47;;;;;;;5.17;2.17;;;7.80;99.90;;;;;;4999725;28;20268;-63
2024/02/23 11:54:19;;;;;;;10.73;2.27;;;7.80;99.90;;;;;;4995043;28;20219;-63
2024/02/23 11:56:49;;;;;;;6.37;1.83;;;7.90;99.90;;;;;;4999181;28;20230;-62
2024/02/23 11:59:18;;;;;;;2.70;1.60;;;8.00;99.90;;;;;;4996200;28;20203;-62
2024/02/23 12:01:47;;;;;;;4.60;1.80;;;8.10;99.90;;;;;;4985759;28;20222;-63
2024/02/23 12:04:16;;;;;;;7.00;1.90;;;8.20;99.90;;;;;;4989502;28;21441;-63
2024/02/23 12:06:45;;;;;;;3.60;1.80;;;8.20;99.90;;;;;;4997271;28;20764;-63
2024/02/23 12:09:15;;;;;;;2.37;1.50;;;8.10;99.90;;;;;;4995065;28;20291;-63
2024/02/23 12:11:45;;;;;;;5.23;1.87;;;8.10;99.90;;;;;;4994578;28;20234;-62
2024/02/23 12:14:14;;;;;;;3.90;1.70;;;8.20;99.90;;;;;;4995837;28;20816;-62
2024/02/23 12:16:42;;;;;;;4.53;1.60;;;7.90;99.90;;;;;;4988403;28;20681;-63
2024/02/23 12:19:10;;;;;;;4.97;2.00;;;7.80;99.90;;;;;;4992081;28;20241;-63
2024/02/23 12:21:39;;;;;;;4.33;1.57;;;7.60;99.90;;;;;;4990218;28;20293;-63
2024/02/23 12:24:08;;;;;;;3.90;1.60;;;7.50;99.90;;;;;;4984733;28;20219;-63
2024/02/23 12:26:36;;;;;;;3.00;1.80;;;7.50;99.90;;;;;;4992196;28;20285;-63
2024/02/23 12:29:06;;;;;;;4.97;1.60;;;7.50;99.90;;;;;;5005776;28;20295;-63
2024/02/23 12:31:35;;;;;;;4.30;1.50;;;7.50;99.90;;;;;;4988999;28;20265;-63
2024/02/23 12:34:04;;;;;;;7.07;2.00;;;7.40;99.90;;;;;;4988877;28;20226;-63
2024/02/23 12:36:35;;;;;;;7.30;2.30;;;7.40;99.90;;;;;;4984756;28;20665;-63
2024/02/23 12:39:03;;;;;;;2.97;1.80;;;7.40;99.90;;;;;;4992152;28;20222;-63
2024/02/23 12:41:31;;;;;;;2.47;1.47;;;7.50;99.90;;;;;;4989100;28;20242;-63
2024/02/23 12:44:00;;;;;;;4.27;1.87;;;7.60;99.90;;;;;;4994793;28;20549;-63
2024/02/23 12:46:30;;;;;;;5.23;2.00;;;7.50;99.90;;;;;;4995025;28;20616;-63
2024/02/23 12:48:58;;;;;;;6.90;2.23;;;7.60;99.90;;;;;;4990553;28;20218;-63
2024/02/23 12:51:27;;;;;;;3.60;2.13;;;7.70;99.90;;;;;;4991739;28;20303;-63
2024/02/23 12:53:57;;;;;;;3.60;1.97;;;7.80;99.90;;;;;;4992726;28;20226;-63
2024/02/23 12:56:25;;;;;;;6.37;2.00;;;7.90;99.90;;;;;;4995318;28;20290;-63
2024/02/23 12:58:54;;;;;;;3.60;1.90;;;8.00;99.90;;;;;;4989765;28;20199;-63
2024/02/23 13:01:22;;;;;;;5.67;2.10;;;8.20;99.90;;;;;;4997944;28;21064;-63
2024/02/23 13:03:53;;;;;;;3.63;1.60;;;8.40;99.90;;;;;;4989387;28;20222;-63